sensor_id;sensor_type;location;lat;lon;timestamp;P1;durP1;ratioP1;P2;durP2;ratioP2
4555;SDS011;2290;48.674;9.018;2022-10-10T00:01:24;4.83;;;2.90;;
4555;SDS011;2290;48.674;9.018;2022-10-10T00:03:54;4.23;;;2.93;;
4555;SDS011;2290;48.674;9.018;2022-10-10T00:06:31;5.10;;;3.60;;
4555;SDS011;2290;48.674;9.018;2022-10-10T00:08:59;5.17;;;3.67;;
4555;SDS011;2290;48.674;9.018;2022-10-10T00:11:25;5.53;;;4.03;;
4555;SDS011;2290;48.674;9.018;2022-10-10T00:13:54;4.60;;;3.07;;
4555;SDS011;2290;48.674;9.018;2022-10-10T00:16:26;4.40;;;3.60;;
4555;SDS011;2290;48.674;9.018;2022-10-10T00:18:55;6.50;;;3.60;;
4555;SDS011;2290;48.674;9.018;2022-10-10T00:21:22;6.93;;;3.57;;
4555;SDS011;2290;48.674;9.018;2022-10-10T00:23:48;6.53;;;3.80;;
4555;SDS011;2290;48.674;9.018;2022-10-10T00:26:14;4.37;;;3.30;;
4555;SDS011;2290;48.674;9.018;2022-10-10T00:28:42;4.60;;;3.23;;
4555;SDS011;2290;48.674;9.018;2022-10-10T00:31:09;4.23;;;3.27;;
4555;SDS011;2290;48.674;9.018;2022-10-10T00:33:36;4.13;;;3.10;;
4555;SDS011;2290;48.674;9.018;2022-10-10T00:36:05;5.10;;;3.07;;
4555;SDS011;2290;48.674;9.018;2022-10-10T00:38:31;6.60;;;3.60;;
4555;SDS011;2290;48.674;9.018;2022-10-10T00:40:58;5.07;;;3.87;;
4555;SDS011;2290;48.674;9.018;2022-10-10T00:43:27;4.80;;;3.30;;
4555;SDS011;2290;48.674;9.018;2022-10-10T00:45:59;7.40;;;4.30;;
4555;SDS011;2290;48.674;9.018;2022-10-10T00:51:14;4.67;;;3.33;;
4555;SDS011;2290;48.674;9.018;2022-10-10T00:53:54;5.20;;;3.50;;
4555;SDS011;2290;48.674;9.018;2022-10-10T00:56:29;5.60;;;3.40;;
4555;SDS011;2290;48.674;9.018;2022-10-10T00:59:01;6.47;;;3.60;;
4555;SDS011;2290;48.674;9.018;2022-10-10T01:01:30;4.30;;;3.47;;
4555;SDS011;2290;48.674;9.018;2022-10-10T01:03:56;7.00;;;4.10;;
4555;SDS011;2290;48.674;9.018;2022-10-10T01:06:23;5.00;;;3.23;;
4555;SDS011;2290;48.674;9.018;2022-10-10T01:08:52;4.93;;;3.60;;
4555;SDS011;2290;48.674;9.018;2022-10-10T01:14:45;5.67;;;3.87;;
4555;SDS011;2290;48.674;9.018;2022-10-10T01:17:39;9.17;;;5.90;;
4555;SDS011;2290;48.674;9.018;2022-10-10T01:20:40;5.27;;;3.50;;
4555;SDS011;2290;48.674;9.018;2022-10-10T01:28:58;5.60;;;3.63;;
4555;SDS011;2290;48.674;9.018;2022-10-10T01:31:53;5.07;;;3.63;;
4555;SDS011;2290;48.674;9.018;2022-10-10T01:34:34;7.77;;;3.23;;
4555;SDS011;2290;48.674;9.018;2022-10-10T01:37:18;7.83;;;3.73;;
4555;SDS011;2290;48.674;9.018;2022-10-10T01:39:59;5.80;;;4.10;;
4555;SDS011;2290;48.674;9.018;2022-10-10T01:42:43;5.00;;;3.53;;
4555;SDS011;2290;48.674;9.018;2022-10-10T01:45:29;5.33;;;3.87;;
4555;SDS011;2290;48.674;9.018;2022-10-10T01:47:58;4.97;;;3.50;;
4555;SDS011;2290;48.674;9.018;2022-10-10T01:50:29;5.27;;;3.83;;
4555;SDS011;2290;48.674;9.018;2022-10-10T01:55:51;4.83;;;3.30;;
4555;SDS011;2290;48.674;9.018;2022-10-10T02:01:24;6.93;;;3.73;;
4555;SDS011;2290;48.674;9.018;2022-10-10T02:04:51;4.90;;;3.40;;
4555;SDS011;2290;48.674;9.018;2022-10-10T02:07:05;5.63;;;3.50;;
4555;SDS011;2290;48.674;9.018;2022-10-10T02:09:40;4.97;;;3.73;;
4555;SDS011;2290;48.674;9.018;2022-10-10T02:12:08;7.60;;;3.40;;
4555;SDS011;2290;48.674;9.018;2022-10-10T02:14:37;8.33;;;4.30;;
4555;SDS011;2290;48.674;9.018;2022-10-10T02:17:07;6.87;;;3.60;;
4555;SDS011;2290;48.674;9.018;2022-10-10T02:19:36;4.80;;;3.30;;
4555;SDS011;2290;48.674;9.018;2022-10-10T02:22:06;5.07;;;3.50;;
4555;SDS011;2290;48.674;9.018;2022-10-10T02:24:33;6.13;;;3.40;;
4555;SDS011;2290;48.674;9.018;2022-10-10T02:27:01;4.87;;;3.53;;
4555;SDS011;2290;48.674;9.018;2022-10-10T02:29:40;7.70;;;4.20;;
4555;SDS011;2290;48.674;9.018;2022-10-10T02:32:15;4.57;;;3.53;;
4555;SDS011;2290;48.674;9.018;2022-10-10T02:34:55;4.30;;;3.30;;
4555;SDS011;2290;48.674;9.018;2022-10-10T02:37:24;4.80;;;3.40;;
4555;SDS011;2290;48.674;9.018;2022-10-10T02:39:53;5.40;;;3.57;;
4555;SDS011;2290;48.674;9.018;2022-10-10T02:42:25;3.80;;;3.30;;
4555;SDS011;2290;48.674;9.018;2022-10-10T02:44:53;4.60;;;3.53;;
4555;SDS011;2290;48.674;9.018;2022-10-10T02:47:20;5.20;;;3.50;;
4555;SDS011;2290;48.674;9.018;2022-10-10T02:49:46;4.70;;;3.30;;
4555;SDS011;2290;48.674;9.018;2022-10-10T02:52:15;4.83;;;4.00;;
4555;SDS011;2290;48.674;9.018;2022-10-10T02:54:45;4.27;;;3.17;;
4555;SDS011;2290;48.674;9.018;2022-10-10T02:57:14;5.07;;;3.60;;
4555;SDS011;2290;48.674;9.018;2022-10-10T02:59:44;5.37;;;3.93;;
4555;SDS011;2290;48.674;9.018;2022-10-10T03:02:12;6.37;;;3.33;;
4555;SDS011;2290;48.674;9.018;2022-10-10T03:04:39;7.00;;;4.23;;
4555;SDS011;2290;48.674;9.018;2022-10-10T03:07:06;5.60;;;4.10;;
4555;SDS011;2290;48.674;9.018;2022-10-10T03:09:35;10.40;;;3.97;;
4555;SDS011;2290;48.674;9.018;2022-10-10T03:12:01;6.90;;;3.87;;
4555;SDS011;2290;48.674;9.018;2022-10-10T03:14:27;7.10;;;4.57;;
4555;SDS011;2290;48.674;9.018;2022-10-10T03:16:54;8.97;;;4.40;;
4555;SDS011;2290;48.674;9.018;2022-10-10T03:19:22;5.43;;;3.67;;
4555;SDS011;2290;48.674;9.018;2022-10-10T03:21:49;6.20;;;3.73;;
4555;SDS011;2290;48.674;9.018;2022-10-10T03:24:14;5.20;;;3.30;;
4555;SDS011;2290;48.674;9.018;2022-10-10T03:26:41;9.00;;;4.40;;
4555;SDS011;2290;48.674;9.018;2022-10-10T03:29:07;8.77;;;4.47;;
4555;SDS011;2290;48.674;9.018;2022-10-10T03:31:32;6.60;;;3.50;;
4555;SDS011;2290;48.674;9.018;2022-10-10T03:33:59;5.83;;;3.43;;
4555;SDS011;2290;48.674;9.018;2022-10-10T03:36:29;5.33;;;3.90;;
4555;SDS011;2290;48.674;9.018;2022-10-10T03:38:55;6.80;;;3.90;;
4555;SDS011;2290;48.674;9.018;2022-10-10T03:41:20;5.77;;;4.00;;
4555;SDS011;2290;48.674;9.018;2022-10-10T03:43:46;5.60;;;3.77;;
4555;SDS011;2290;48.674;9.018;2022-10-10T03:46:12;9.00;;;3.90;;
4555;SDS011;2290;48.674;9.018;2022-10-10T03:48:39;5.67;;;3.83;;
4555;SDS011;2290;48.674;9.018;2022-10-10T03:51:07;4.77;;;3.50;;
4555;SDS011;2290;48.674;9.018;2022-10-10T03:53:36;6.63;;;3.93;;
4555;SDS011;2290;48.674;9.018;2022-10-10T03:56:02;6.10;;;3.47;;
4555;SDS011;2290;48.674;9.018;2022-10-10T03:58:30;8.83;;;3.93;;
4555;SDS011;2290;48.674;9.018;2022-10-10T04:00:58;5.63;;;3.87;;
4555;SDS011;2290;48.674;9.018;2022-10-10T04:03:27;5.00;;;3.57;;
4555;SDS011;2290;48.674;9.018;2022-10-10T04:05:54;6.73;;;4.00;;
4555;SDS011;2290;48.674;9.018;2022-10-10T04:08:20;4.50;;;3.03;;
4555;SDS011;2290;48.674;9.018;2022-10-10T04:10:47;6.40;;;3.93;;
4555;SDS011;2290;48.674;9.018;2022-10-10T04:13:14;5.50;;;3.50;;
4555;SDS011;2290;48.674;9.018;2022-10-10T04:15:40;4.13;;;3.33;;
4555;SDS011;2290;48.674;9.018;2022-10-10T04:18:06;5.73;;;3.63;;
4555;SDS011;2290;48.674;9.018;2022-10-10T04:20:33;5.80;;;3.80;;
4555;SDS011;2290;48.674;9.018;2022-10-10T04:22:59;7.97;;;4.13;;
4555;SDS011;2290;48.674;9.018;2022-10-10T04:25:25;4.40;;;3.20;;
4555;SDS011;2290;48.674;9.018;2022-10-10T04:27:52;5.40;;;3.50;;
4555;SDS011;2290;48.674;9.018;2022-10-10T04:30:18;5.53;;;4.13;;
4555;SDS011;2290;48.674;9.018;2022-10-10T04:32:44;8.23;;;3.53;;
4555;SDS011;2290;48.674;9.018;2022-10-10T04:35:09;8.00;;;4.20;;
4555;SDS011;2290;48.674;9.018;2022-10-10T04:37:36;4.33;;;3.70;;
4555;SDS011;2290;48.674;9.018;2022-10-10T04:40:03;3.90;;;3.50;;
4555;SDS011;2290;48.674;9.018;2022-10-10T04:42:29;4.93;;;3.73;;
4555;SDS011;2290;48.674;9.018;2022-10-10T04:44:55;4.30;;;3.10;;
4555;SDS011;2290;48.674;9.018;2022-10-10T04:47:22;4.90;;;3.40;;
4555;SDS011;2290;48.674;9.018;2022-10-10T04:49:48;4.20;;;3.50;;
4555;SDS011;2290;48.674;9.018;2022-10-10T04:52:14;5.80;;;3.20;;
4555;SDS011;2290;48.674;9.018;2022-10-10T04:54:41;7.57;;;3.67;;
4555;SDS011;2290;48.674;9.018;2022-10-10T04:57:08;8.40;;;3.10;;
4555;SDS011;2290;48.674;9.018;2022-10-10T04:59:33;4.90;;;3.67;;
4555;SDS011;2290;48.674;9.018;2022-10-10T05:01:59;5.70;;;3.27;;
4555;SDS011;2290;48.674;9.018;2022-10-10T05:04:26;3.90;;;3.30;;
4555;SDS011;2290;48.674;9.018;2022-10-10T05:06:53;5.27;;;3.57;;
4555;SDS011;2290;48.674;9.018;2022-10-10T05:09:18;5.77;;;3.20;;
4555;SDS011;2290;48.674;9.018;2022-10-10T05:11:45;6.40;;;3.13;;
4555;SDS011;2290;48.674;9.018;2022-10-10T05:14:12;6.83;;;3.87;;
4555;SDS011;2290;48.674;9.018;2022-10-10T05:16:37;6.33;;;3.60;;
4555;SDS011;2290;48.674;9.018;2022-10-10T05:19:04;5.40;;;3.60;;
4555;SDS011;2290;48.674;9.018;2022-10-10T05:21:38;7.67;;;3.80;;
4555;SDS011;2290;48.674;9.018;2022-10-10T05:24:04;6.53;;;4.37;;
4555;SDS011;2290;48.674;9.018;2022-10-10T05:26:33;5.70;;;3.70;;
4555;SDS011;2290;48.674;9.018;2022-10-10T05:28:58;4.10;;;3.50;;
4555;SDS011;2290;48.674;9.018;2022-10-10T05:31:26;4.67;;;3.77;;
4555;SDS011;2290;48.674;9.018;2022-10-10T05:33:52;5.60;;;3.30;;
4555;SDS011;2290;48.674;9.018;2022-10-10T05:36:18;8.67;;;4.50;;
4555;SDS011;2290;48.674;9.018;2022-10-10T05:38:44;4.70;;;3.27;;
4555;SDS011;2290;48.674;9.018;2022-10-10T05:41:12;6.87;;;3.83;;
4555;SDS011;2290;48.674;9.018;2022-10-10T05:43:43;6.27;;;4.57;;
4555;SDS011;2290;48.674;9.018;2022-10-10T05:46:09;7.53;;;3.87;;
4555;SDS011;2290;48.674;9.018;2022-10-10T05:48:35;5.40;;;4.10;;
4555;SDS011;2290;48.674;9.018;2022-10-10T05:51:02;9.80;;;4.30;;
4555;SDS011;2290;48.674;9.018;2022-10-10T05:53:28;6.10;;;3.50;;
4555;SDS011;2290;48.674;9.018;2022-10-10T05:55:55;14.13;;;3.80;;
4555;SDS011;2290;48.674;9.018;2022-10-10T05:58:22;7.50;;;4.17;;
4555;SDS011;2290;48.674;9.018;2022-10-10T06:00:50;8.07;;;4.00;;
4555;SDS011;2290;48.674;9.018;2022-10-10T06:03:15;5.00;;;4.10;;
4555;SDS011;2290;48.674;9.018;2022-10-10T06:05:42;5.80;;;3.60;;
4555;SDS011;2290;48.674;9.018;2022-10-10T06:08:10;6.00;;;3.73;;
4555;SDS011;2290;48.674;9.018;2022-10-10T06:10:38;6.30;;;4.60;;
4555;SDS011;2290;48.674;9.018;2022-10-10T06:13:05;6.97;;;4.07;;
4555;SDS011;2290;48.674;9.018;2022-10-10T06:15:30;5.80;;;4.27;;
4555;SDS011;2290;48.674;9.018;2022-10-10T06:17:56;6.50;;;4.43;;
4555;SDS011;2290;48.674;9.018;2022-10-10T06:20:22;7.23;;;4.40;;
4555;SDS011;2290;48.674;9.018;2022-10-10T06:22:48;6.73;;;4.50;;
4555;SDS011;2290;48.674;9.018;2022-10-10T06:25:14;7.70;;;4.20;;
4555;SDS011;2290;48.674;9.018;2022-10-10T06:27:40;6.13;;;3.77;;
4555;SDS011;2290;48.674;9.018;2022-10-10T06:30:07;6.90;;;3.47;;
4555;SDS011;2290;48.674;9.018;2022-10-10T06:32:35;6.87;;;3.90;;
4555;SDS011;2290;48.674;9.018;2022-10-10T06:35:01;7.00;;;4.03;;
4555;SDS011;2290;48.674;9.018;2022-10-10T06:37:26;4.20;;;3.40;;
4555;SDS011;2290;48.674;9.018;2022-10-10T06:39:55;6.13;;;3.20;;
4555;SDS011;2290;48.674;9.018;2022-10-10T06:42:21;5.63;;;3.77;;
4555;SDS011;2290;48.674;9.018;2022-10-10T06:44:46;7.57;;;4.60;;
4555;SDS011;2290;48.674;9.018;2022-10-10T06:47:12;6.27;;;3.80;;
4555;SDS011;2290;48.674;9.018;2022-10-10T06:49:38;4.83;;;3.30;;
4555;SDS011;2290;48.674;9.018;2022-10-10T06:52:03;8.67;;;4.70;;
4555;SDS011;2290;48.674;9.018;2022-10-10T06:54:31;5.80;;;3.50;;
4555;SDS011;2290;48.674;9.018;2022-10-10T06:56:56;6.10;;;4.20;;
4555;SDS011;2290;48.674;9.018;2022-10-10T06:59:22;10.40;;;4.03;;
4555;SDS011;2290;48.674;9.018;2022-10-10T07:01:47;8.67;;;4.20;;
4555;SDS011;2290;48.674;9.018;2022-10-10T07:04:14;5.50;;;3.90;;
4555;SDS011;2290;48.674;9.018;2022-10-10T07:06:41;5.00;;;3.90;;
4555;SDS011;2290;48.674;9.018;2022-10-10T07:09:06;9.30;;;6.40;;
4555;SDS011;2290;48.674;9.018;2022-10-10T07:11:32;6.97;;;4.47;;
4555;SDS011;2290;48.674;9.018;2022-10-10T07:13:58;5.70;;;3.67;;
4555;SDS011;2290;48.674;9.018;2022-10-10T07:16:25;5.53;;;3.93;;
4555;SDS011;2290;48.674;9.018;2022-10-10T07:18:50;6.53;;;4.27;;
4555;SDS011;2290;48.674;9.018;2022-10-10T07:21:16;4.90;;;3.47;;
4555;SDS011;2290;48.674;9.018;2022-10-10T07:23:41;5.00;;;3.60;;
4555;SDS011;2290;48.674;9.018;2022-10-10T07:26:09;10.00;;;3.97;;
4555;SDS011;2290;48.674;9.018;2022-10-10T07:28:37;6.97;;;4.70;;
4555;SDS011;2290;48.674;9.018;2022-10-10T07:31:04;6.83;;;4.07;;
4555;SDS011;2290;48.674;9.018;2022-10-10T07:33:33;7.90;;;4.23;;
4555;SDS011;2290;48.674;9.018;2022-10-10T07:36:01;12.73;;;3.97;;
4555;SDS011;2290;48.674;9.018;2022-10-10T07:38:27;8.23;;;3.80;;
4555;SDS011;2290;48.674;9.018;2022-10-10T07:40:52;5.17;;;3.83;;
4555;SDS011;2290;48.674;9.018;2022-10-10T07:43:18;6.47;;;4.00;;
4555;SDS011;2290;48.674;9.018;2022-10-10T07:45:44;6.73;;;3.83;;
4555;SDS011;2290;48.674;9.018;2022-10-10T07:48:09;5.13;;;3.47;;
4555;SDS011;2290;48.674;9.018;2022-10-10T07:50:38;4.30;;;3.23;;
4555;SDS011;2290;48.674;9.018;2022-10-10T07:53:09;9.00;;;3.10;;
4555;SDS011;2290;48.674;9.018;2022-10-10T07:55:38;6.47;;;3.20;;
4555;SDS011;2290;48.674;9.018;2022-10-10T07:58:08;4.50;;;3.20;;
4555;SDS011;2290;48.674;9.018;2022-10-10T08:00:38;4.70;;;3.20;;
4555;SDS011;2290;48.674;9.018;2022-10-10T08:03:06;5.90;;;3.67;;
4555;SDS011;2290;48.674;9.018;2022-10-10T08:05:41;4.70;;;2.73;;
4555;SDS011;2290;48.674;9.018;2022-10-10T08:08:09;6.23;;;3.17;;
4555;SDS011;2290;48.674;9.018;2022-10-10T08:10:36;6.60;;;3.40;;
4555;SDS011;2290;48.674;9.018;2022-10-10T08:13:02;5.40;;;3.10;;
4555;SDS011;2290;48.674;9.018;2022-10-10T08:15:28;5.80;;;3.03;;
4555;SDS011;2290;48.674;9.018;2022-10-10T08:17:54;7.07;;;3.00;;
4555;SDS011;2290;48.674;9.018;2022-10-10T08:20:20;3.20;;;2.63;;
4555;SDS011;2290;48.674;9.018;2022-10-10T08:22:48;7.70;;;2.83;;
4555;SDS011;2290;48.674;9.018;2022-10-10T08:25:14;3.93;;;2.90;;
4555;SDS011;2290;48.674;9.018;2022-10-10T08:27:43;4.17;;;2.70;;
4555;SDS011;2290;48.674;9.018;2022-10-10T08:30:09;7.43;;;3.23;;
4555;SDS011;2290;48.674;9.018;2022-10-10T08:32:35;4.03;;;2.77;;
4555;SDS011;2290;48.674;9.018;2022-10-10T08:35:01;3.80;;;3.00;;
4555;SDS011;2290;48.674;9.018;2022-10-10T08:37:28;4.23;;;2.90;;
4555;SDS011;2290;48.674;9.018;2022-10-10T08:39:53;2.93;;;2.53;;
4555;SDS011;2290;48.674;9.018;2022-10-10T08:42:27;3.53;;;2.60;;
4555;SDS011;2290;48.674;9.018;2022-10-10T08:44:58;4.10;;;2.90;;
4555;SDS011;2290;48.674;9.018;2022-10-10T08:50:01;4.87;;;2.77;;
4555;SDS011;2290;48.674;9.018;2022-10-10T08:55:22;6.73;;;2.57;;
4555;SDS011;2290;48.674;9.018;2022-10-10T09:00:23;4.47;;;2.80;;
4555;SDS011;2290;48.674;9.018;2022-10-10T09:02:55;4.37;;;3.13;;
4555;SDS011;2290;48.674;9.018;2022-10-10T09:10:46;3.17;;;2.20;;
4555;SDS011;2290;48.674;9.018;2022-10-10T09:13:38;4.27;;;2.53;;
4555;SDS011;2290;48.674;9.018;2022-10-10T09:18:55;3.63;;;2.20;;
4555;SDS011;2290;48.674;9.018;2022-10-10T09:21:34;3.90;;;2.20;;
4555;SDS011;2290;48.674;9.018;2022-10-10T09:24:14;3.23;;;2.37;;
4555;SDS011;2290;48.674;9.018;2022-10-10T09:26:48;3.23;;;2.47;;
4555;SDS011;2290;48.674;9.018;2022-10-10T09:31:57;6.03;;;2.27;;
4555;SDS011;2290;48.674;9.018;2022-10-10T09:34:35;2.60;;;2.13;;
4555;SDS011;2290;48.674;9.018;2022-10-10T09:37:13;2.70;;;2.03;;
4555;SDS011;2290;48.674;9.018;2022-10-10T09:39:43;4.20;;;2.20;;
4555;SDS011;2290;48.674;9.018;2022-10-10T09:42:16;8.83;;;2.70;;
4555;SDS011;2290;48.674;9.018;2022-10-10T09:44:50;6.80;;;2.50;;
4555;SDS011;2290;48.674;9.018;2022-10-10T09:47:16;4.27;;;2.67;;
4555;SDS011;2290;48.674;9.018;2022-10-10T09:49:43;3.60;;;2.50;;
4555;SDS011;2290;48.674;9.018;2022-10-10T09:55:00;2.33;;;2.00;;
4555;SDS011;2290;48.674;9.018;2022-10-10T09:57:44;2.80;;;2.27;;
4555;SDS011;2290;48.674;9.018;2022-10-10T10:05:37;3.00;;;2.70;;
4555;SDS011;2290;48.674;9.018;2022-10-10T10:08:17;3.27;;;2.17;;
4555;SDS011;2290;48.674;9.018;2022-10-10T10:10:46;2.43;;;2.23;;
4555;SDS011;2290;48.674;9.018;2022-10-10T10:13:23;6.63;;;2.53;;
4555;SDS011;2290;48.674;9.018;2022-10-10T10:15:55;4.60;;;2.23;;
4555;SDS011;2290;48.674;9.018;2022-10-10T10:18:26;2.10;;;1.90;;
4555;SDS011;2290;48.674;9.018;2022-10-10T10:21:27;7.43;;;1.90;;
4555;SDS011;2290;48.674;9.018;2022-10-10T10:26:46;3.70;;;2.10;;
4555;SDS011;2290;48.674;9.018;2022-10-10T10:29:31;5.03;;;2.13;;
4555;SDS011;2290;48.674;9.018;2022-10-10T10:32:15;2.70;;;2.20;;
4555;SDS011;2290;48.674;9.018;2022-10-10T10:37:57;4.40;;;2.33;;
4555;SDS011;2290;48.674;9.018;2022-10-10T10:40:33;2.40;;;2.03;;
4555;SDS011;2290;48.674;9.018;2022-10-10T10:43:16;2.47;;;2.03;;
4555;SDS011;2290;48.674;9.018;2022-10-10T10:48:32;3.47;;;2.67;;
4555;SDS011;2290;48.674;9.018;2022-10-10T10:53:43;4.93;;;2.37;;
4555;SDS011;2290;48.674;9.018;2022-10-10T10:56:38;3.07;;;2.30;;
4555;SDS011;2290;48.674;9.018;2022-10-10T11:04:49;4.13;;;2.20;;
4555;SDS011;2290;48.674;9.018;2022-10-10T11:18:12;4.73;;;2.80;;
4555;SDS011;2290;48.674;9.018;2022-10-10T11:21:31;5.57;;;2.90;;
4555;SDS011;2290;48.674;9.018;2022-10-10T11:23:45;4.60;;;2.33;;
4555;SDS011;2290;48.674;9.018;2022-10-10T11:26:47;4.30;;;2.30;;
4555;SDS011;2290;48.674;9.018;2022-10-10T11:29:22;5.67;;;2.60;;
4555;SDS011;2290;48.674;9.018;2022-10-10T11:31:54;6.93;;;2.37;;
4555;SDS011;2290;48.674;9.018;2022-10-10T11:34:32;3.80;;;2.40;;
4555;SDS011;2290;48.674;9.018;2022-10-10T11:37:06;4.93;;;2.37;;
4555;SDS011;2290;48.674;9.018;2022-10-10T11:39:43;8.00;;;2.97;;
4555;SDS011;2290;48.674;9.018;2022-10-10T11:42:38;4.17;;;2.67;;
4555;SDS011;2290;48.674;9.018;2022-10-10T11:45:14;4.87;;;2.73;;
4555;SDS011;2290;48.674;9.018;2022-10-10T11:48:19;5.83;;;2.30;;
4555;SDS011;2290;48.674;9.018;2022-10-10T11:50:57;5.23;;;2.93;;
4555;SDS011;2290;48.674;9.018;2022-10-10T11:53:36;6.37;;;2.97;;
4555;SDS011;2290;48.674;9.018;2022-10-10T11:58:47;3.60;;;2.50;;
4555;SDS011;2290;48.674;9.018;2022-10-10T12:01:24;3.87;;;2.50;;
4555;SDS011;2290;48.674;9.018;2022-10-10T12:03:57;3.00;;;2.23;;
4555;SDS011;2290;48.674;9.018;2022-10-10T12:06:25;6.50;;;3.67;;
4555;SDS011;2290;48.674;9.018;2022-10-10T12:09:26;7.40;;;2.70;;
4555;SDS011;2290;48.674;9.018;2022-10-10T12:12:06;8.53;;;2.97;;
4555;SDS011;2290;48.674;9.018;2022-10-10T12:14:40;4.87;;;2.40;;
4555;SDS011;2290;48.674;9.018;2022-10-10T12:17:19;5.57;;;2.17;;
4555;SDS011;2290;48.674;9.018;2022-10-10T12:20:30;4.10;;;2.60;;
4555;SDS011;2290;48.674;9.018;2022-10-10T12:25:51;6.67;;;3.17;;
4555;SDS011;2290;48.674;9.018;2022-10-10T12:46:39;5.50;;;2.80;;
4555;SDS011;2290;48.674;9.018;2022-10-10T12:49:16;6.00;;;2.67;;
4555;SDS011;2290;48.674;9.018;2022-10-10T12:52:09;7.80;;;2.70;;
4555;SDS011;2290;48.674;9.018;2022-10-10T12:54:39;9.27;;;2.80;;
4555;SDS011;2290;48.674;9.018;2022-10-10T12:57:11;5.40;;;2.60;;
4555;SDS011;2290;48.674;9.018;2022-10-10T12:59:42;5.00;;;2.37;;
4555;SDS011;2290;48.674;9.018;2022-10-10T13:02:17;6.33;;;3.20;;
4555;SDS011;2290;48.674;9.018;2022-10-10T13:04:48;4.97;;;2.87;;
4555;SDS011;2290;48.674;9.018;2022-10-10T13:07:18;10.03;;;2.77;;
4555;SDS011;2290;48.674;9.018;2022-10-10T13:09:47;5.50;;;2.40;;
4555;SDS011;2290;48.674;9.018;2022-10-10T13:12:22;5.30;;;2.60;;
4555;SDS011;2290;48.674;9.018;2022-10-10T13:14:55;4.57;;;2.60;;
4555;SDS011;2290;48.674;9.018;2022-10-10T13:17:22;6.80;;;2.87;;
4555;SDS011;2290;48.674;9.018;2022-10-10T13:19:58;5.60;;;1.90;;
4555;SDS011;2290;48.674;9.018;2022-10-10T13:22:25;10.00;;;2.50;;
4555;SDS011;2290;48.674;9.018;2022-10-10T13:24:52;10.70;;;2.37;;
4555;SDS011;2290;48.674;9.018;2022-10-10T13:29:52;7.10;;;2.10;;
4555;SDS011;2290;48.674;9.018;2022-10-10T13:32:20;5.67;;;2.00;;
4555;SDS011;2290;48.674;9.018;2022-10-10T13:34:56;7.77;;;2.00;;
4555;SDS011;2290;48.674;9.018;2022-10-10T13:37:25;9.17;;;2.17;;
4555;SDS011;2290;48.674;9.018;2022-10-10T13:39:52;15.30;;;2.53;;
4555;SDS011;2290;48.674;9.018;2022-10-10T13:44:55;7.70;;;2.20;;
4555;SDS011;2290;48.674;9.018;2022-10-10T13:47:43;3.60;;;2.37;;
4555;SDS011;2290;48.674;9.018;2022-10-10T13:50:18;9.00;;;3.33;;
4555;SDS011;2290;48.674;9.018;2022-10-10T13:53:20;6.43;;;2.40;;
4555;SDS011;2290;48.674;9.018;2022-10-10T13:56:01;5.80;;;2.00;;
4555;SDS011;2290;48.674;9.018;2022-10-10T13:58:29;4.37;;;1.83;;
4555;SDS011;2290;48.674;9.018;2022-10-10T14:01:02;5.90;;;2.40;;
4555;SDS011;2290;48.674;9.018;2022-10-10T14:03:28;5.67;;;2.10;;
4555;SDS011;2290;48.674;9.018;2022-10-10T14:05:58;6.23;;;2.50;;
4555;SDS011;2290;48.674;9.018;2022-10-10T14:08:25;3.23;;;1.77;;
4555;SDS011;2290;48.674;9.018;2022-10-10T14:10:58;7.93;;;2.20;;
4555;SDS011;2290;48.674;9.018;2022-10-10T14:13:24;6.07;;;2.27;;
4555;SDS011;2290;48.674;9.018;2022-10-10T14:15:51;9.60;;;2.77;;
4555;SDS011;2290;48.674;9.018;2022-10-10T14:18:18;13.93;;;2.60;;
4555;SDS011;2290;48.674;9.018;2022-10-10T14:20:44;4.63;;;1.80;;
4555;SDS011;2290;48.674;9.018;2022-10-10T14:23:11;8.70;;;2.30;;
4555;SDS011;2290;48.674;9.018;2022-10-10T14:25:40;3.20;;;2.10;;
4555;SDS011;2290;48.674;9.018;2022-10-10T14:28:17;4.80;;;2.37;;
4555;SDS011;2290;48.674;9.018;2022-10-10T14:30:47;6.43;;;2.30;;
4555;SDS011;2290;48.674;9.018;2022-10-10T14:33:15;7.90;;;2.60;;
4555;SDS011;2290;48.674;9.018;2022-10-10T14:35:42;6.47;;;2.33;;
4555;SDS011;2290;48.674;9.018;2022-10-10T14:38:28;6.63;;;3.67;;
4555;SDS011;2290;48.674;9.018;2022-10-10T14:40:53;14.03;;;2.40;;
4555;SDS011;2290;48.674;9.018;2022-10-10T14:43:19;7.93;;;3.03;;
4555;SDS011;2290;48.674;9.018;2022-10-10T14:45:48;8.77;;;3.17;;
4555;SDS011;2290;48.674;9.018;2022-10-10T14:48:15;5.17;;;2.50;;
4555;SDS011;2290;48.674;9.018;2022-10-10T14:50:43;9.47;;;2.77;;
4555;SDS011;2290;48.674;9.018;2022-10-10T14:53:11;6.40;;;2.67;;
4555;SDS011;2290;48.674;9.018;2022-10-10T14:55:38;6.70;;;2.63;;
4555;SDS011;2290;48.674;9.018;2022-10-10T14:58:17;5.07;;;2.83;;
4555;SDS011;2290;48.674;9.018;2022-10-10T15:00:45;6.60;;;2.33;;
4555;SDS011;2290;48.674;9.018;2022-10-10T15:03:11;5.33;;;3.10;;
4555;SDS011;2290;48.674;9.018;2022-10-10T15:05:38;7.63;;;3.63;;
4555;SDS011;2290;48.674;9.018;2022-10-10T15:08:04;11.00;;;2.63;;
4555;SDS011;2290;48.674;9.018;2022-10-10T15:10:32;5.00;;;2.80;;
4555;SDS011;2290;48.674;9.018;2022-10-10T15:12:59;5.80;;;2.70;;
4555;SDS011;2290;48.674;9.018;2022-10-10T15:15:26;5.47;;;2.83;;
4555;SDS011;2290;48.674;9.018;2022-10-10T15:17:52;4.43;;;2.73;;
4555;SDS011;2290;48.674;9.018;2022-10-10T15:20:17;6.87;;;3.53;;
4555;SDS011;2290;48.674;9.018;2022-10-10T15:22:44;4.60;;;3.13;;
4555;SDS011;2290;48.674;9.018;2022-10-10T15:25:10;10.13;;;3.00;;
4555;SDS011;2290;48.674;9.018;2022-10-10T15:27:36;6.60;;;2.57;;
4555;SDS011;2290;48.674;9.018;2022-10-10T15:30:03;10.40;;;3.13;;
4555;SDS011;2290;48.674;9.018;2022-10-10T15:32:29;9.87;;;2.70;;
4555;SDS011;2290;48.674;9.018;2022-10-10T15:34:56;8.70;;;3.27;;
4555;SDS011;2290;48.674;9.018;2022-10-10T15:37:24;6.70;;;3.40;;
4555;SDS011;2290;48.674;9.018;2022-10-10T15:39:52;8.03;;;3.00;;
4555;SDS011;2290;48.674;9.018;2022-10-10T15:42:18;5.43;;;2.87;;
4555;SDS011;2290;48.674;9.018;2022-10-10T15:44:44;11.73;;;4.23;;
4555;SDS011;2290;48.674;9.018;2022-10-10T15:47:11;4.33;;;2.70;;
4555;SDS011;2290;48.674;9.018;2022-10-10T15:49:38;6.63;;;3.10;;
4555;SDS011;2290;48.674;9.018;2022-10-10T15:52:04;11.03;;;3.13;;
4555;SDS011;2290;48.674;9.018;2022-10-10T15:54:30;4.60;;;2.67;;
4555;SDS011;2290;48.674;9.018;2022-10-10T15:56:55;9.03;;;3.30;;
4555;SDS011;2290;48.674;9.018;2022-10-10T15:59:21;8.70;;;3.10;;
4555;SDS011;2290;48.674;9.018;2022-10-10T16:01:47;3.90;;;2.80;;
4555;SDS011;2290;48.674;9.018;2022-10-10T16:04:13;6.90;;;2.63;;
4555;SDS011;2290;48.674;9.018;2022-10-10T16:06:38;6.60;;;2.83;;
4555;SDS011;2290;48.674;9.018;2022-10-10T16:09:04;8.27;;;3.20;;
4555;SDS011;2290;48.674;9.018;2022-10-10T16:11:29;6.20;;;2.97;;
4555;SDS011;2290;48.674;9.018;2022-10-10T16:13:55;5.03;;;3.67;;
4555;SDS011;2290;48.674;9.018;2022-10-10T16:16:24;8.33;;;3.90;;
4555;SDS011;2290;48.674;9.018;2022-10-10T16:18:49;5.13;;;2.93;;
4555;SDS011;2290;48.674;9.018;2022-10-10T16:21:16;6.93;;;2.80;;
4555;SDS011;2290;48.674;9.018;2022-10-10T16:23:44;11.53;;;3.23;;
4555;SDS011;2290;48.674;9.018;2022-10-10T16:26:13;5.87;;;3.73;;
4555;SDS011;2290;48.674;9.018;2022-10-10T16:28:40;6.60;;;3.10;;
4555;SDS011;2290;48.674;9.018;2022-10-10T16:31:08;3.50;;;2.80;;
4555;SDS011;2290;48.674;9.018;2022-10-10T16:33:37;7.63;;;3.50;;
4555;SDS011;2290;48.674;9.018;2022-10-10T16:36:11;9.37;;;3.20;;
4555;SDS011;2290;48.674;9.018;2022-10-10T16:38:39;7.33;;;2.60;;
4555;SDS011;2290;48.674;9.018;2022-10-10T16:41:09;8.93;;;3.73;;
4555;SDS011;2290;48.674;9.018;2022-10-10T16:43:39;8.90;;;3.70;;
4555;SDS011;2290;48.674;9.018;2022-10-10T16:46:06;4.80;;;2.80;;
4555;SDS011;2290;48.674;9.018;2022-10-10T16:48:35;6.33;;;3.17;;
4555;SDS011;2290;48.674;9.018;2022-10-10T16:51:05;6.47;;;3.10;;
4555;SDS011;2290;48.674;9.018;2022-10-10T16:53:33;8.63;;;2.77;;
4555;SDS011;2290;48.674;9.018;2022-10-10T16:56:00;5.00;;;4.60;;
4555;SDS011;2290;48.674;9.018;2022-10-10T16:58:28;6.40;;;2.47;;
4555;SDS011;2290;48.674;9.018;2022-10-10T17:00:55;5.73;;;2.80;;
4555;SDS011;2290;48.674;9.018;2022-10-10T17:03:22;8.10;;;2.87;;
4555;SDS011;2290;48.674;9.018;2022-10-10T17:06:00;10.30;;;3.13;;
4555;SDS011;2290;48.674;9.018;2022-10-10T17:08:32;6.83;;;3.87;;
4555;SDS011;2290;48.674;9.018;2022-10-10T17:10:58;8.77;;;3.00;;
4555;SDS011;2290;48.674;9.018;2022-10-10T17:13:26;8.37;;;2.80;;
4555;SDS011;2290;48.674;9.018;2022-10-10T17:15:52;6.70;;;2.63;;